Time;durP1;ratioP1;P1;durP2;ratioP2;P2;SDS_P1;SDS_P2;PMS_P1;PMS_P2;Temp;Humidity;BMP_temperature;BMP_pressure;BME280_temperature;BME280_humidity;BME280_pressure;Samples;Min_cycle;Max_cycle;Signal;HPM_P1;HPM_P2
2023/10/22 00:01:19;;;;;;;7.22;3.10;;;;;;;20.98;43.63;94744.50;5042246;28;20201;-72
2023/10/22 00:03:47;;;;;;;4.65;2.85;;;;;;;20.97;43.32;94734.53;5059242;28;20200;-72
2023/10/22 00:06:14;;;;;;;8.95;2.58;;;;;;;20.98;42.75;94722.06;5042351;28;20233;-71
2023/10/22 00:08:42;;;;;;;7.20;3.00;;;;;;;21.01;41.58;94722.00;5042438;28;20213;-71
2023/10/22 00:11:09;;;;;;;8.98;3.13;;;;;;;21.08;41.96;94758.34;5058955;28;20189;-72
2023/10/22 00:13:39;;;;;;;5.93;2.80;;;;;;;21.11;41.91;94731.47;5059299;28;20260;-72
2023/10/22 00:16:06;;;;;;;5.88;2.83;;;;;;;21.10;41.70;94719.44;5059140;28;20186;-72
2023/10/22 00:18:33;;;;;;;10.55;3.53;;;;;;;21.09;41.29;94717.84;5041900;28;20224;-73
2023/10/22 00:21:00;;;;;;;5.68;2.80;;;;;;;21.11;40.76;94690.19;5041443;28;20212;-71
2023/10/22 00:23:30;;;;;;;6.93;2.88;;;;;;;21.16;41.23;94719.72;5041280;28;20202;-73
2023/10/22 00:26:00;;;;;;;9.88;2.80;;;;;;;21.11;42.03;94709.81;5041634;28;20198;-73
2023/10/22 00:28:26;;;;;;;6.28;2.88;;;;;;;21.05;41.94;94711.53;5059656;28;20287;-73
2023/10/22 00:30:55;;;;;;;5.60;2.53;;;;;;;21.05;41.31;94707.94;5059423;28;20190;-73
2023/10/22 00:33:24;;;;;;;6.13;2.97;;;;;;;21.06;41.47;94718.72;5059506;28;20265;-73
2023/10/22 00:35:59;;;;;;;8.55;3.20;;;;;;;21.08;41.34;94721.88;5042040;28;20220;-73
2023/10/22 00:38:27;;;;;;;4.13;2.70;;;;;;;21.06;41.06;94710.31;5041513;28;20296;-73
2023/10/22 00:40:54;;;;;;;7.47;3.00;;;;;;;21.04;41.55;94712.75;5042085;28;20225;-73
2023/10/22 00:43:23;;;;;;;3.50;2.85;;;;;;;21.01;41.55;94705.19;5058832;28;20182;-73
2023/10/22 00:45:50;;;;;;;5.57;3.05;;;;;;;20.99;41.54;94704.84;5040889;28;20738;-73
2023/10/22 00:48:22;;;;;;;7.50;3.03;;;;;;;20.97;41.71;94712.88;5058828;28;20186;-73
2023/10/22 00:50:49;;;;;;;7.32;2.95;;;;;;;20.98;41.60;94713.66;5041976;28;20276;-73
2023/10/22 00:53:18;;;;;;;7.22;3.13;;;;;;;21.00;41.76;94698.00;5041798;28;20198;-73
2023/10/22 00:55:47;;;;;;;7.68;2.80;;;;;;;21.01;41.12;94708.00;5021172;28;20277;-73
2023/10/22 00:58:16;;;;;;;7.32;2.80;;;;;;;21.07;40.71;94685.88;5001894;28;20222;-73
2023/10/22 01:00:44;;;;;;;7.93;2.97;;;;;;;21.06;41.23;94703.91;5018931;28;20223;-73
2023/10/22 01:03:14;;;;;;;8.18;2.78;;;;;;;21.05;41.37;94679.91;5018606;28;20278;-73
2023/10/22 01:05:42;;;;;;;6.20;3.08;;;;;;;21.02;41.54;94692.75;5017371;28;20197;-74
2023/10/22 01:08:11;;;;;;;5.78;3.25;;;;;;;20.98;42.01;94706.03;5018325;28;20226;-73
2023/10/22 01:10:38;;;;;;;7.82;3.10;;;;;;;20.95;42.09;94695.69;5018611;28;20274;-72
2023/10/22 01:13:06;;;;;;;11.48;4.15;;;;;;;20.91;42.56;94714.59;5017233;28;20209;-72
2023/10/22 01:15:33;;;;;;;6.60;2.92;;;;;;;20.87;43.26;94697.06;5018230;28;20226;-72
2023/10/22 01:18:01;;;;;;;7.88;3.10;;;;;;;20.83;43.45;94705.53;5017909;28;20514;-72
2023/10/22 01:20:30;;;;;;;4.65;3.10;;;;;;;20.85;42.52;94682.69;5017477;28;20203;-71
2023/10/22 01:23:01;;;;;;;6.15;3.13;;;;;;;20.87;41.32;94699.84;5016802;28;20261;-70
2023/10/22 01:25:32;;;;;;;8.35;2.80;;;;;;;20.87;41.83;94716.66;5017597;28;20207;-70
2023/10/22 01:28:00;;;;;;;4.63;3.05;;;;;;;20.87;42.04;94680.22;5016912;28;20203;-70
2023/10/22 01:30:27;;;;;;;9.52;3.25;;;;;;;20.84;41.88;94693.13;5017493;28;20199;-70
2023/10/22 01:32:55;;;;;;;5.32;2.60;;;;;;;20.85;41.08;94710.72;5016901;28;20210;-71
2023/10/22 01:35:22;;;;;;;5.35;2.92;;;;;;;20.83;41.73;94685.91;5016993;28;20285;-70
2023/10/22 01:37:49;;;;;;;5.55;3.13;;;;;;;20.82;42.57;94705.97;5017902;28;20214;-70
2023/10/22 01:40:16;;;;;;;8.52;3.78;;;;;;;20.80;42.63;94711.97;5017278;28;20630;-71
2023/10/22 01:42:48;;;;;;;6.28;3.08;;;;;;;20.78;42.58;94708.03;5017612;28;20193;-71
2023/10/22 01:45:15;;;;;;;7.85;3.55;;;;;;;20.75;42.97;94692.06;5017140;28;20575;-71
2023/10/22 01:47:43;;;;;;;5.68;3.38;;;;;;;20.71;42.91;94710.97;5016557;28;20295;-71
2023/10/22 01:50:10;;;;;;;7.18;3.10;;;;;;;20.70;43.20;94706.56;5016337;28;20611;-71
2023/10/22 01:52:39;;;;;;;7.30;2.75;;;;;;;20.67;43.05;94699.81;5017659;28;20194;-71
2023/10/22 01:55:07;;;;;;;8.27;3.40;;;;;;;20.64;43.32;94707.06;5040252;28;20241;-72
2023/10/22 01:57:36;;;;;;;8.88;3.10;;;;;;;20.63;43.28;94687.88;5040296;28;20193;-72
2023/10/22 02:00:10;;;;;;;5.47;2.90;;;;;;;20.60;43.24;94697.94;5056937;28;20204;-72
2023/10/22 02:02:40;;;;;;;6.43;3.08;;;;;;;20.59;43.32;94704.75;5039771;28;20220;-72
2023/10/22 02:05:08;;;;;;;6.25;3.33;;;;;;;20.58;43.20;94685.56;5056768;28;20277;-72
2023/10/22 02:07:38;;;;;;;7.50;2.88;;;;;;;20.57;43.50;94679.16;5039565;28;20201;-72
2023/10/22 02:10:06;;;;;;;5.57;2.83;;;;;;;20.53;43.82;94688.88;5057143;28;20190;-74
2023/10/22 02:12:34;;;;;;;7.43;3.05;;;;;;;20.47;43.96;94696.13;5039875;28;20194;-73
2023/10/22 02:15:01;;;;;;;5.60;2.78;;;;;;;20.39;44.15;94682.25;5056973;28;20261;-72
2023/10/22 02:17:31;;;;;;;8.45;3.22;;;;;;;20.35;44.34;94695.53;5038646;28;20300;-72
2023/10/22 02:19:58;;;;;;;4.85;3.00;;;;;;;20.32;45.53;94682.38;5056358;28;20182;-72
2023/10/22 02:22:25;;;;;;;9.95;3.35;;;;;;;20.29;45.56;94690.81;5039161;28;20205;-72
2023/10/22 02:24:52;;;;;;;7.55;3.50;;;;;;;20.25;46.01;94676.09;5056251;28;20641;-72
2023/10/22 02:27:20;;;;;;;5.63;3.10;;;;;;;20.20;46.31;94674.56;5056480;28;20196;-72
2023/10/22 02:29:47;;;;;;;7.47;3.33;;;;;;;20.14;46.48;94665.06;5056424;28;20185;-73
2023/10/22 02:32:15;;;;;;;8.80;3.63;;;;;;;20.01;47.50;94648.09;5056220;28;20597;-73
2023/10/22 02:34:43;;;;;;;7.93;3.83;;;;;;;20.01;47.08;94672.47;5038862;28;20547;-73
2023/10/22 02:37:13;;;;;;;7.63;3.60;;;;;;;20.00;47.01;94682.09;5039176;28;20194;-74
2023/10/22 02:39:40;;;;;;;7.85;3.47;;;;;;;19.99;46.99;94680.50;5056226;28;20208;-73
2023/10/22 02:42:09;;;;;;;7.65;3.53;;;;;;;19.99;47.40;94664.50;5039312;28;20206;-73
2023/10/22 02:44:36;;;;;;;7.75;3.40;;;;;;;19.91;47.82;94700.19;5038734;28;20201;-73
2023/10/22 02:47:04;;;;;;;8.38;3.67;;;;;;;19.87;48.03;94682.69;5038348;28;20300;-73
2023/10/22 02:49:31;;;;;;;10.02;3.72;;;;;;;19.88;47.68;94683.47;5056631;28;20224;-73
2023/10/22 02:52:02;;;;;;;6.30;3.28;;;;;;;19.87;47.92;94687.47;5039595;28;20202;-73
2023/10/22 02:54:29;;;;;;;8.77;3.88;;;;;;;19.87;47.87;94691.06;5056857;28;20234;-73
2023/10/22 02:56:57;;;;;;;7.88;3.17;;;;;;;19.86;48.28;94672.72;5057071;28;20232;-73
2023/10/22 02:59:27;;;;;;;6.13;3.15;;;;;;;19.81;48.47;94694.75;5039591;28;20218;-73
2023/10/22 03:01:56;;;;;;;5.07;3.25;;;;;;;19.80;48.80;94665.19;5039044;28;20198;-73
2023/10/22 03:04:22;;;;;;;7.13;2.95;;;;;;;19.77;48.24;94671.63;5056668;28;20208;-73
2023/10/22 03:06:51;;;;;;;9.50;4.00;;;;;;;19.77;48.28;94699.63;5039396;28;20225;-73
2023/10/22 03:09:20;;;;;;;5.05;3.30;;;;;;;19.79;47.81;94674.78;5038947;28;20538;-73
2023/10/22 03:11:48;;;;;;;5.32;3.30;;;;;;;19.78;47.88;94662.03;5055792;28;20257;-73
2023/10/22 03:14:20;;;;;;;9.07;3.50;;;;;;;19.77;47.78;94675.22;5039094;28;20212;-73
2023/10/22 03:16:48;;;;;;;7.68;3.40;;;;;;;19.79;47.91;94675.59;5056301;28;20201;-73
2023/10/22 03:19:17;;;;;;;9.20;3.80;;;;;;;19.78;48.33;94688.00;5038599;28;20229;-73
2023/10/22 03:21:45;;;;;;;10.40;3.95;;;;;;;19.74;48.49;94662.06;5040302;28;20475;-74
2023/10/22 03:24:15;;;;;;;7.65;3.65;;;;;;;19.74;48.45;94659.28;5039339;28;20198;-72
2023/10/22 03:26:46;;;;;;;6.65;3.90;;;;;;;19.74;48.40;94681.66;5037922;28;20236;-72
2023/10/22 03:29:13;;;;;;;7.38;3.60;;;;;;;19.72;48.47;94678.50;5037530;28;20186;-72
2023/10/22 03:31:42;;;;;;;6.68;3.58;;;;;;;19.71;48.28;94651.72;5038485;28;20193;-72
2023/10/22 03:34:09;;;;;;;6.68;3.58;;;;;;;19.69;48.47;94654.16;5038830;28;20208;-73
2023/10/22 03:36:37;;;;;;;7.30;3.47;;;;;;;19.69;48.08;94665.34;5038332;28;20196;-73
2023/10/22 03:39:06;;;;;;;10.02;3.83;;;;;;;19.71;48.15;94658.09;5055798;28;20248;-73
2023/10/22 03:41:35;;;;;;;7.75;3.70;;;;;;;19.70;48.31;94670.50;5055617;28;20182;-73
2023/10/22 03:44:04;;;;;;;6.88;3.42;;;;;;;19.68;48.66;94638.56;5038809;28;20295;-73
2023/10/22 03:46:35;;;;;;;6.97;3.70;;;;;;;19.66;48.53;94675.38;5055789;28;20197;-73
2023/10/22 03:49:02;;;;;;;8.55;3.90;;;;;;;19.62;48.05;94705.41;5056310;28;20181;-73
2023/10/22 03:51:30;;;;;;;10.27;4.25;;;;;;;19.62;48.24;94659.84;5038737;28;20204;-73
2023/10/22 03:53:58;;;;;;;8.77;3.63;;;;;;;19.62;48.50;94660.66;5055714;28;20289;-73
2023/10/22 03:56:26;;;;;;;7.70;4.03;;;;;;;19.60;48.61;94671.41;5057139;28;20186;-73
2023/10/22 03:58:53;;;;;;;8.27;4.78;;;;;;;19.57;48.87;94674.28;5040254;28;20213;-73
2023/10/22 04:01:22;;;;;;;8.57;3.83;;;;;;;19.56;48.83;94672.69;5039844;28;20201;-73
2023/10/22 04:03:49;;;;;;;6.80;5.03;;;;;;;19.56;49.06;94676.28;5038932;28;20201;-73
2023/10/22 04:06:17;;;;;;;7.10;3.28;;;;;;;19.54;48.46;94673.13;5039311;28;20198;-73
2023/10/22 04:08:44;;;;;;;10.55;4.32;;;;;;;19.54;48.72;94675.94;5039992;28;20217;-73
2023/10/22 04:11:14;;;;;;;8.45;4.88;;;;;;;19.51;49.23;94684.38;5056749;28;20186;-73
2023/10/22 04:13:42;;;;;;;9.25;4.63;;;;;;;19.48;48.92;94697.19;5056398;28;20269;-73
2023/10/22 04:16:18;;;;;;;6.47;4.18;;;;;;;19.44;49.77;94680.44;5056996;28;20654;-73
2023/10/22 04:18:46;;;;;;;6.72;4.07;;;;;;;19.37;49.77;94646.97;5040349;28;20248;-73
2023/10/22 04:21:15;;;;;;;8.93;4.40;;;;;;;19.36;49.70;94680.97;5039774;28;20683;-73
2023/10/22 04:23:43;;;;;;;8.75;4.07;;;;;;;19.34;50.15;94703.72;5038857;28;20205;-72
2023/10/22 04:26:13;;;;;;;6.97;3.85;;;;;;;19.34;49.99;94698.13;5056329;28;20182;-73
2023/10/22 04:28:40;;;;;;;6.00;3.53;;;;;;;19.32;50.13;94710.94;5038316;28;20201;-74
2023/10/22 04:31:08;;;;;;;8.60;3.92;;;;;;;19.30;50.09;94727.38;5038202;28;20216;-74
2023/10/22 04:33:35;;;;;;;5.57;3.55;;;;;;;19.28;50.25;94713.81;5039890;28;20209;-74
2023/10/22 04:36:16;;;;;;;6.50;3.67;;;;;;;19.24;50.33;94716.66;5054929;28;20269;-74
2023/10/22 04:38:44;;;;;;;9.68;3.53;;;;;;;19.19;50.50;94705.91;5038195;28;20217;-74
2023/10/22 04:41:12;;;;;;;6.65;3.45;;;;;;;19.15;50.80;94716.34;5041670;28;20202;-74
2023/10/22 04:43:42;;;;;;;7.03;4.40;;;;;;;19.12;50.89;94733.94;5042196;28;20200;-73
2023/10/22 04:46:10;;;;;;;9.38;3.80;;;;;;;19.08;51.24;94735.19;5041568;28;20197;-74
2023/10/22 04:48:37;;;;;;;8.77;4.18;;;;;;;19.04;51.37;94720.47;5058455;28;20188;-74
2023/10/22 04:51:09;;;;;;;10.25;3.53;;;;;;;18.98;51.80;94757.25;5041117;28;20208;-74
2023/10/22 04:53:36;;;;;;;10.30;4.47;;;;;;;18.94;51.57;94755.69;5041433;28;20233;-74
2023/10/22 04:56:08;;;;;;;7.25;4.30;;;;;;;18.93;51.88;94748.53;5058092;28;20243;-74
2023/10/22 04:58:38;;;;;;;8.73;3.92;;;;;;;18.90;51.83;94763.34;5041333;28;20212;-74
2023/10/22 05:01:07;;;;;;;7.05;3.60;;;;;;;18.84;52.09;94748.22;5040854;28;20197;-74
2023/10/22 05:03:34;;;;;;;6.45;3.55;;;;;;;18.82;52.32;94767.41;5057650;28;20198;-74
2023/10/22 05:06:05;;;;;;;5.88;3.63;;;;;;;18.75;52.74;94757.09;5040114;28;20202;-73
2023/10/22 05:08:34;;;;;;;6.38;3.90;;;;;;;18.76;52.43;94758.66;5058201;28;20178;-74
2023/10/22 05:11:04;;;;;;;7.22;4.10;;;;;;;18.73;52.66;94759.50;5057843;28;20197;-74
2023/10/22 05:13:31;;;;;;;9.05;3.75;;;;;;;18.73;52.80;94743.50;5057639;28;20186;-74
2023/10/22 05:15:59;;;;;;;7.72;4.65;;;;;;;18.71;52.78;94759.91;5057944;28;20197;-74
2023/10/22 05:18:26;;;;;;;8.70;4.70;;;;;;;18.71;52.88;94754.31;5040494;28;20265;-74
2023/10/22 05:20:54;;;;;;;7.13;4.20;;;;;;;18.69;52.82;94750.31;5040081;28;20229;-74
2023/10/22 05:23:24;;;;;;;8.05;4.32;;;;;;;18.66;52.72;94754.72;5039888;28;20292;-75
2023/10/22 05:26:04;;;;;;;8.40;4.78;;;;;;;18.65;53.07;94741.97;5040748;28;20292;-73
2023/10/22 05:28:33;;;;;;;6.90;4.18;;;;;;;18.64;53.27;94761.94;5039954;28;20633;-73
2023/10/22 05:31:01;;;;;;;9.55;4.18;;;;;;;18.64;53.04;94756.38;5040334;28;20267;-73
2023/10/22 05:33:28;;;;;;;7.50;4.18;;;;;;;18.64;53.27;94757.16;5057178;28;20204;-73
2023/10/22 05:35:56;;;;;;;5.80;3.92;;;;;;;18.61;53.58;94744.00;5040845;28;20206;-70
2023/10/22 05:38:23;;;;;;;5.28;3.90;;;;;;;18.59;53.87;94768.78;5040821;28;20296;-68
2023/10/22 05:40:53;;;;;;;5.60;3.70;;;;;;;18.56;53.92;94755.63;5057481;28;20210;-70
2023/10/22 05:43:20;;;;;;;8.23;4.05;;;;;;;18.55;54.17;94764.41;5039862;28;20209;-70
2023/10/22 05:45:57;;;;;;;9.10;4.18;;;;;;;18.50;54.53;94765.66;5057263;28;20284;-70
2023/10/22 05:48:27;;;;;;;8.52;4.47;;;;;;;18.47;54.47;94778.44;5040464;28;20185;-70
2023/10/22 05:50:55;;;;;;;6.93;4.75;;;;;;;18.47;54.54;94775.63;5039167;28;20194;-70
2023/10/22 05:53:22;;;;;;;10.23;4.47;;;;;;;18.46;54.77;94771.25;5056868;28;20178;-70
2023/10/22 05:56:01;;;;;;;10.50;5.15;;;;;;;18.45;54.79;94785.66;5019729;28;20239;-70
2023/10/22 05:58:28;;;;;;;8.90;5.38;;;;;;;18.42;55.18;94781.66;5017210;28;20215;-70
2023/10/22 06:00:57;;;;;;;8.18;4.82;;;;;;;18.38;55.28;94805.25;5016272;28;20223;-70
2023/10/22 06:03:23;;;;;;;10.35;5.20;;;;;;;18.37;55.37;94801.63;5016822;28;20203;-70
2023/10/22 06:05:52;;;;;;;7.35;5.15;;;;;;;18.36;55.55;94800.06;5017331;28;20187;-69
2023/10/22 06:08:19;;;;;;;8.93;4.93;;;;;;;18.35;55.86;94806.84;5016654;28;20207;-69
2023/10/22 06:10:47;;;;;;;8.93;5.75;;;;;;;18.37;55.64;94818.38;5016873;28;20595;-72
2023/10/22 06:13:16;;;;;;;6.68;4.60;;;;;;;18.37;55.76;94823.19;5016177;28;20603;-72
2023/10/22 06:15:45;;;;;;;9.57;5.95;;;;;;;18.34;55.91;94807.25;5016231;28;20463;-69
2023/10/22 06:18:15;;;;;;;8.88;4.93;;;;;;;18.37;55.85;94812.00;5017454;28;20274;-69
2023/10/22 06:20:43;;;;;;;8.77;4.28;;;;;;;18.46;55.27;94815.16;5016510;28;20214;-69
2023/10/22 06:23:09;;;;;;;10.35;5.28;;;;;;;18.55;55.92;94820.25;5016858;28;20190;-69
2023/10/22 06:25:38;;;;;;;8.88;4.50;;;;;;;18.54;55.55;94822.25;5016536;28;20202;-69
2023/10/22 06:28:05;;;;;;;9.45;5.22;;;;;;;18.56;55.73;94833.84;5016794;28;20179;-69
2023/10/22 06:30:38;;;;;;;10.48;7.03;;;;;;;18.53;56.02;94841.03;5016261;28;20585;-69
2023/10/22 06:33:05;;;;;;;10.82;6.40;;;;;;;18.54;56.11;94855.78;5016712;28;20188;-69
2023/10/22 06:35:33;;;;;;;11.55;7.18;;;;;;;18.50;56.51;94853.00;5016553;28;20198;-70
2023/10/22 06:38:00;;;;;;;7.93;5.38;;;;;;;18.47;56.95;94859.41;5016668;28;20206;-70
2023/10/22 06:40:27;;;;;;;11.07;6.03;;;;;;;18.45;57.20;94864.63;5016107;28;20229;-73
2023/10/22 06:42:54;;;;;;;8.85;6.07;;;;;;;18.44;57.21;94862.22;5016591;28;20278;-68
2023/10/22 06:45:22;;;;;;;9.15;5.30;;;;;;;18.40;56.79;94867.03;5015375;28;20088;-74
2023/10/22 06:47:56;;;;;;;10.35;5.40;;;;;;;18.42;56.57;94859.06;5015211;28;20199;-68
2023/10/22 06:50:26;;;;;;;10.18;5.70;;;;;;;18.48;56.83;94863.00;5016520;28;20213;-72
2023/10/22 06:52:53;;;;;;;9.32;5.13;;;;;;;18.51;56.86;94854.59;5016333;28;20186;-72
2023/10/22 06:55:22;;;;;;;8.00;5.13;;;;;;;18.55;56.65;94856.56;5041730;28;20340;-72
2023/10/22 06:57:48;;;;;;;8.73;5.03;;;;;;;18.57;56.59;94854.97;5038206;28;20213;-72
2023/10/22 07:00:17;;;;;;;12.20;5.10;;;;;;;18.59;56.51;94855.34;5038565;28;20657;-73
2023/10/22 07:02:46;;;;;;;9.38;5.93;;;;;;;18.63;56.58;94866.50;5038117;28;20202;-72
2023/10/22 07:05:15;;;;;;;10.10;5.47;;;;;;;18.64;56.61;94860.50;5038907;28;20208;-73
2023/10/22 07:07:43;;;;;;;7.93;4.68;;;;;;;18.66;56.34;94862.88;5038964;28;20198;-73
2023/10/22 07:10:11;;;;;;;8.43;5.10;;;;;;;18.66;56.29;94860.88;5038807;28;20235;-72
2023/10/22 07:12:38;;;;;;;7.88;5.15;;;;;;;18.69;56.52;94865.63;5055709;28;20292;-72
2023/10/22 07:15:09;;;;;;;7.82;5.13;;;;;;;18.71;56.52;94866.06;5038642;28;20193;-72
2023/10/22 07:17:36;;;;;;;10.45;5.43;;;;;;;18.76;56.62;94871.19;5038507;28;20209;-72
2023/10/22 07:20:06;;;;;;;9.50;4.82;;;;;;;18.83;57.01;94869.56;5038023;28;20221;-70
2023/10/22 07:22:37;;;;;;;9.20;5.43;;;;;;;18.86;56.69;94855.56;5038839;28;20204;-72
2023/10/22 07:25:06;;;;;;;9.05;5.78;;;;;;;18.90;56.58;94852.75;5038296;28;20206;-72
2023/10/22 07:27:33;;;;;;;12.45;6.22;;;;;;;18.91;57.04;94854.31;5037327;28;20205;-72
2023/10/22 07:30:02;;;;;;;10.77;5.65;;;;;;;18.96;56.65;94859.50;5055448;28;20181;-72
2023/10/22 07:32:29;;;;;;;7.65;5.20;;;;;;;19.04;55.81;94858.22;5055144;28;20224;-72
2023/10/22 07:34:58;;;;;;;8.85;5.68;;;;;;;19.13;55.22;94850.13;5055456;28;20190;-72
2023/10/22 07:37:27;;;;;;;6.85;4.85;;;;;;;19.22;53.89;94853.25;5054957;28;20190;-71
2023/10/22 07:40:03;;;;;;;9.55;4.40;;;;;;;19.33;54.16;94852.38;5037660;28;20220;-71
2023/10/22 07:42:30;;;;;;;9.65;4.78;;;;;;;19.37;53.89;94848.31;5037716;28;20224;-71
2023/10/22 07:44:58;;;;;;;5.68;3.90;;;;;;;19.38;54.51;94854.69;5054889;28;20620;-71
2023/10/22 07:47:25;;;;;;;7.18;4.43;;;;;;;19.34;54.16;94857.53;5054928;28;20185;-72
2023/10/22 07:49:53;;;;;;;10.73;4.85;;;;;;;19.31;54.37;94849.97;5055292;28;20210;-73
2023/10/22 07:52:19;;;;;;;6.43;4.82;;;;;;;19.31;54.46;94849.97;5055104;28;20523;-73
2023/10/22 07:54:52;;;;;;;9.43;5.13;;;;;;;19.30;54.58;94848.38;5026149;28;20242;-73
2023/10/22 07:57:20;;;;;;;8.98;4.90;;;;;;;19.27;55.37;94837.22;5014527;28;20207;-73
2023/10/22 07:59:48;;;;;;;8.95;4.70;;;;;;;19.27;54.62;94837.22;5014307;28;20242;-73
2023/10/22 08:02:15;;;;;;;13.65;5.82;;;;;;;19.29;55.47;94843.22;5015084;28;20515;-74
2023/10/22 08:04:43;;;;;;;7.22;4.63;;;;;;;19.34;55.07;94835.16;5015557;28;20193;-74
2023/10/22 08:07:10;;;;;;;9.23;4.60;;;;;;;19.45;54.85;94843.44;5014545;28;20221;-73
2023/10/22 08:09:38;;;;;;;7.13;4.60;;;;;;;19.57;54.79;94828.94;5015894;28;20195;-73
2023/10/22 08:12:05;;;;;;;9.50;4.82;;;;;;;19.73;53.99;94827.59;5015274;28;20179;-71
2023/10/22 08:14:35;;;;;;;7.70;4.45;;;;;;;19.96;53.36;94839.66;5017010;28;20525;-72
2023/10/22 08:17:02;;;;;;;7.72;4.15;;;;;;;20.10;52.66;94826.72;5018953;28;20283;-71
2023/10/22 08:19:31;;;;;;;7.07;3.97;;;;;;;20.16;52.52;94816.63;5019058;28;20207;-72
2023/10/22 08:21:57;;;;;;;6.53;3.97;;;;;;;20.20;52.86;94806.97;5019175;28;20194;-72
2023/10/22 08:24:26;;;;;;;8.95;4.43;;;;;;;20.15;52.93;94810.25;5019212;28;20179;-72
2023/10/22 08:26:53;;;;;;;8.50;5.18;;;;;;;20.18;52.30;94814.19;5019141;28;20183;-71
2023/10/22 08:29:21;;;;;;;9.07;4.68;;;;;;;20.25;51.79;94805.69;5018979;28;20191;-71
2023/10/22 08:31:49;;;;;;;7.78;4.70;;;;;;;20.24;51.67;94814.53;5019164;28;20179;-71
2023/10/22 08:34:17;;;;;;;7.45;4.40;;;;;;;20.25;52.68;94807.69;5018748;28;20201;-73
2023/10/22 08:36:45;;;;;;;7.72;4.97;;;;;;;20.28;52.19;94818.06;5018651;28;20522;-73
2023/10/22 08:39:14;;;;;;;6.13;4.05;;;;;;;20.37;51.69;94799.53;5018390;28;20290;-73
2023/10/22 08:41:46;;;;;;;9.85;4.82;;;;;;;20.53;51.38;94796.09;5018820;28;20237;-73
2023/10/22 08:44:15;;;;;;;9.18;5.18;;;;;;;20.70;51.13;94805.44;5018098;28;20253;-73
2023/10/22 08:46:42;;;;;;;6.57;4.22;;;;;;;20.84;51.38;94787.59;5018543;28;20207;-73
2023/10/22 08:49:15;;;;;;;8.20;4.45;;;;;;;21.15;50.36;94796.66;5017407;28;20241;-74
2023/10/22 08:51:42;;;;;;;20.45;4.40;;;;;;;21.33;49.43;94818.78;5018302;28;20203;-73
2023/10/22 08:54:10;;;;;;;7.18;4.00;;;;;;;21.55;48.93;94793.97;5024134;28;20328;-74
2023/10/22 08:56:37;;;;;;;7.72;4.53;;;;;;;21.69;48.65;94790.09;5008218;28;20205;-74
2023/10/22 08:59:08;;;;;;;8.32;3.85;;;;;;;21.70;47.76;94780.44;5041112;28;20208;-74
2023/10/22 09:01:35;;;;;;;7.65;5.03;;;;;;;21.88;47.30;94783.66;5041163;28;20637;-74
2023/10/22 09:04:04;;;;;;;9.07;4.20;;;;;;;21.94;46.85;94778.34;5046746;28;20224;-73
2023/10/22 09:06:32;;;;;;;8.35;4.32;;;;;;;22.02;46.69;94785.38;5063914;28;20255;-73
2023/10/22 09:09:04;;;;;;;8.35;4.03;;;;;;;22.12;45.34;94781.53;5062599;28;20213;-73
2023/10/22 09:11:31;;;;;;;8.20;4.10;;;;;;;22.23;45.34;94778.53;5062030;28;20190;-73
2023/10/22 09:13:59;;;;;;;10.48;4.38;;;;;;;22.27;45.02;94777.22;5046625;28;20240;-73
2023/10/22 09:16:30;;;;;;;8.52;3.85;;;;;;;22.39;44.89;94786.19;5045801;28;20264;-74
2023/10/22 09:19:01;;;;;;;6.10;4.03;;;;;;;22.53;43.94;94769.00;5046278;28;20597;-74
2023/10/22 09:21:46;;;;;;;8.45;4.50;;;;;;;22.58;43.58;94780.50;5065677;28;20210;-73
2023/10/22 09:24:15;;;;;;;6.80;3.28;;;;;;;22.66;42.39;94788.75;5047652;28;20220;-73
2023/10/22 09:26:45;;;;;;;9.82;4.18;;;;;;;22.83;41.94;94774.25;5048417;28;20296;-73
2023/10/22 09:29:17;;;;;;;10.25;3.95;;;;;;;22.89;42.71;94774.53;5047224;28;20198;-74
2023/10/22 09:31:53;;;;;;;8.15;3.97;;;;;;;23.04;40.66;94775.00;5046870;28;20214;-73
2023/10/22 09:34:30;;;;;;;5.05;3.67;;;;;;;23.06;41.22;94781.78;5045168;28;20201;-73
2023/10/22 09:37:00;;;;;;;6.82;3.40;;;;;;;23.13;40.98;94760.28;5047110;28;20197;-73
2023/10/22 09:39:35;;;;;;;6.78;3.53;;;;;;;23.18;40.85;94754.16;5066112;28;20262;-73
2023/10/22 09:42:04;;;;;;;10.02;4.07;;;;;;;23.30;40.46;94759.03;5047451;28;20245;-73
2023/10/22 09:44:33;;;;;;;6.63;3.53;;;;;;;23.37;40.64;94770.09;5048229;28;20190;-73
2023/10/22 09:47:01;;;;;;;6.32;3.97;;;;;;;23.39;40.38;94741.53;5047278;28;20229;-73
2023/10/22 09:49:30;;;;;;;9.88;3.90;;;;;;;23.44;40.49;94738.16;5046017;28;20201;-72
2023/10/22 09:52:00;;;;;;;8.93;3.70;;;;;;;23.47;40.73;94740.09;5046964;28;20198;-73
2023/10/22 09:54:38;;;;;;;9.00;4.10;;;;;;;23.59;39.46;94744.19;5038283;28;20231;-72
2023/10/22 09:57:10;;;;;;;8.77;3.63;;;;;;;23.68;39.16;94731.06;5023376;28;20528;-73
2023/10/22 09:59:40;;;;;;;9.25;4.28;;;;;;;23.74;39.17;94723.63;5023882;28;20223;-73
2023/10/22 10:02:09;;;;;;;12.55;4.22;;;;;;;23.92;38.13;94725.94;5023781;28;20211;-73
2023/10/22 10:04:37;;;;;;;12.80;4.50;;;;;;;24.11;37.49;94731.81;5023978;28;20202;-73
2023/10/22 10:07:08;;;;;;;10.15;4.53;;;;;;;24.16;38.05;94712.31;5024649;28;20198;-75
2023/10/22 10:09:38;;;;;;;7.53;4.07;;;;;;;24.16;37.91;94717.97;5020802;28;20298;-74
2023/10/22 10:12:08;;;;;;;13.20;4.40;;;;;;;24.16;38.07;94712.31;5020818;28;20199;-73
2023/10/22 10:14:42;;;;;;;15.13;5.65;;;;;;;24.36;37.38;94720.53;5021124;28;20213;-74
2023/10/22 10:17:11;;;;;;;8.48;3.83;;;;;;;24.38;37.46;94706.81;5021901;28;20206;-74
2023/10/22 10:19:40;;;;;;;10.90;4.25;;;;;;;24.40;37.16;94717.66;5022030;28;20183;-73
2023/10/22 10:22:09;;;;;;;9.60;4.25;;;;;;;24.41;36.62;94713.59;5020238;28;20290;-74
2023/10/22 10:24:37;;;;;;;11.65;4.65;;;;;;;24.38;36.52;94723.72;5021274;28;20655;-77
2023/10/22 10:27:29;;;;;;;10.43;4.50;;;;;;;24.38;36.68;94731.38;5020973;28;20290;-70
2023/10/22 10:30:17;;;;;;;12.95;4.43;;;;;;;24.42;36.13;94713.16;5006289;28;20309;-73
2023/10/22 10:32:46;;;;;;;9.68;4.75;;;;;;;24.43;36.29;94685.75;5021659;28;20187;-72
2023/10/22 10:35:15;;;;;;;11.55;4.43;;;;;;;24.38;36.99;94689.09;5020478;28;20201;-72
2023/10/22 10:38:16;;;;;;;11.40;4.82;;;;;;;24.49;36.50;94698.81;5021905;28;20259;-73
2023/10/22 10:40:47;;;;;;;12.02;5.28;;;;;;;24.54;36.26;94699.50;5021222;28;20628;-73
2023/10/22 10:43:15;;;;;;;8.98;4.18;;;;;;;24.57;36.08;94673.22;5021721;28;20215;-74
2023/10/22 10:46:23;;;;;;;9.32;4.38;;;;;;;24.58;36.03;94675.56;5021312;28;20199;-74
2023/10/22 10:48:52;;;;;;;12.55;4.82;;;;;;;24.59;36.21;94694.09;4966911;28;20267;-73
2023/10/22 10:51:22;;;;;;;13.45;4.32;;;;;;;24.63;36.48;94672.19;5019476;28;20229;-72
2023/10/22 10:54:28;;;;;;;13.75;3.92;;;;;;;24.68;36.37;94682.88;5020096;28;20191;-73
2023/10/22 10:56:57;;;;;;;13.63;4.40;;;;;;;24.69;36.27;94676.03;5017986;28;20301;-72
2023/10/22 10:59:33;;;;;;;10.05;4.10;;;;;;;24.76;36.68;94683.44;5017681;28;20187;-72
2023/10/22 11:02:02;;;;;;;11.73;3.97;;;;;;;24.87;36.11;94716.91;5018363;28;20239;-72
2023/10/22 11:04:32;;;;;;;11.30;4.30;;;;;;;24.97;36.09;94702.44;5018331;28;20214;-72
2023/10/22 11:07:00;;;;;;;11.60;4.65;;;;;;;24.95;36.28;94678.78;5018537;28;20222;-72
2023/10/22 11:09:28;;;;;;;12.50;4.32;;;;;;;24.96;36.29;94671.88;5018494;28;20278;-72
2023/10/22 11:12:03;;;;;;;10.10;4.45;;;;;;;24.96;36.17;94677.53;5019030;28;20194;-72
2023/10/22 11:14:31;;;;;;;7.43;4.25;;;;;;;25.01;36.18;94685.41;5019134;28;20213;-72
2023/10/22 11:17:00;;;;;;;13.43;4.20;;;;;;;25.06;36.13;94693.28;5018569;28;20194;-72
2023/10/22 11:19:29;;;;;;;10.23;4.57;;;;;;;25.09;36.33;94692.38;5017297;28;20194;-73
2023/10/22 11:21:57;;;;;;;14.65;4.53;;;;;;;25.07;36.22;94669.47;5017611;28;20729;-72
2023/10/22 11:24:29;;;;;;;10.02;4.57;;;;;;;25.04;36.58;94701.41;5017885;28;20203;-72
2023/10/22 11:26:58;;;;;;;12.05;4.40;;;;;;;24.98;35.95;94683.47;5019132;28;20205;-72
2023/10/22 11:29:26;;;;;;;15.85;4.60;;;;;;;24.98;36.96;94660.91;5018379;28;20626;-72
2023/10/22 11:31:55;;;;;;;10.27;5.00;;;;;;;25.04;36.81;94666.78;5018885;28;20188;-72
2023/10/22 11:34:22;;;;;;;10.02;4.03;;;;;;;25.08;37.01;94661.78;5018694;28;20237;-72
2023/10/22 11:36:57;;;;;;;10.00;4.38;;;;;;;25.09;36.86;94669.00;5019072;28;20243;-73
2023/10/22 11:39:24;;;;;;;9.00;5.45;;;;;;;25.09;37.06;94667.00;5018293;28;20198;-72
2023/10/22 11:41:57;;;;;;;12.25;4.50;;;;;;;25.15;36.66;94668.00;5018402;28;20556;-72